Airfield :
LOGIN :

Register | Disclaimer

   EN    FR    IT 

 










Legend :    VFR   Marginal VFR   IFR   Intensive IFR   Very Intensive IFR
Visi :
Ceiling :
>= 8 km
>= 3000ft
5 to 8 km
1000 to 3000 ft
1500m to 5 km
500 to 1000 ft
800 to 1500m
200 to 500 ft
< 800m
< 200 ft
Symbols :   Thunderstorms  Fog  Heavy snow  Heavy precipitations  Wind > 20 kt
SIGMETs :     Misc.  Thunderstorms  Icing  Turbulence  Mountain Waves  Volcanic Ashes







- Airport Elevation : 266 ft
- IATA code : NCL
- Download approach charts


EGNT - Newcastle

CURRENT METAR :
  • 201520Z 07017G29KT 9999 6000SW -SHRA FEW015CB BKN020 06/03 Q1015

EXPIRED METARs :
  • 201450Z 06017KT 9999 VCSH FEW015CB BKN020 06/03 Q1016
  • 201420Z 07017KT 040V110 9999 -SHRA FEW015CB SCT020 06/03 Q1016
  • 201350Z 07015KT 5000 -SHRA SCT015CB SCT020 06/05 Q1016
  • 201320Z 06016KT 9999 6000S VCSH FEW015CB SCT020 07/04 Q1017
  • 201250Z 06018KT 9999 5000E VCSH FEW015CB SCT020 07/04 Q1017

TAF TAF EGNT
Valid from the 20 at 12:00 until the 21 at 12:00 UTC


201058Z 2012/2112 06015G25KT 9999 SCT020
TEMPO 2012/2112 6000 SHRA BKN014
PROB40
TEMPO 2012/2110 4000 +SHRA BKN009
PROB40
TEMPO 2012/2021 07018G35KT
BECMG 2103/2106 12010KT
ATIS : +44 191 214 3400
No reported NOTAMs for that airfield.
1 SIGMET reported for the Scottish FIR (EGPX) :
 
Severe mountain waves
EGPX SIGMET 02 VALID 201300/201700 EGRR
EGPX SCOTTISH FIR SEV MTW FCST WI N5604 W00532 - N5559 W00245 - N5500 W00218 - N5500 W00525 - N5604 W00532 FL030/120 STNR NC=



MET'MAP, your aeronautical weather chart ! - Copyright ORBIFLY December 2007 - Disclaimer

ORBIFLY MET'MAP TEAM :

Programming & Development : Alexandra Zaïnal
Concept & Development : Baudouin d'Aumeries
Co-Development & Prog : Marc-Olivier Méhu
Technical & hardware support : Manuel Goepfert

Contact : metmap@orbifly.com




SOURCES & CREDITS :

   NOAA